Time;durP1;ratioP1;P1;durP2;ratioP2;P2;SDS_P1;SDS_P2;PMS_P1;PMS_P2;Temp;Humidity;BMP_temperature;BMP_pressure;BME280_temperature;BME280_humidity;BME280_pressure;Samples;Min_cycle;Max_cycle;Signal;HPM_P1;HPM_P2
2022/08/21 00:01:32;;;;;;;10.80;3.58;;;14.60;86.30;;;;;;5075908;28;20190;-88
2022/08/21 00:04:03;;;;;;;9.48;3.10;;;14.50;86.10;;;;;;5077292;28;20171;-88
2022/08/21 00:06:28;;;;;;;7.05;3.20;;;14.50;86.30;;;;;;5077015;28;20234;-88
2022/08/21 00:08:54;;;;;;;6.63;3.20;;;14.40;86.30;;;;;;5076037;28;20202;-87
2022/08/21 00:11:19;;;;;;;3.70;2.63;;;14.40;86.20;;;;;;5077095;28;20221;-88
2022/08/21 00:13:45;;;;;;;9.93;3.67;;;14.50;86.10;;;;;;5076025;28;20175;-88
2022/08/21 00:16:11;;;;;;;11.13;3.20;;;14.50;85.90;;;;;;5075960;28;20213;-88
2022/08/21 00:18:37;;;;;;;7.13;3.30;;;14.60;85.60;;;;;;5077178;28;20179;-88
2022/08/21 00:21:03;;;;;;;7.25;3.10;;;14.70;85.60;;;;;;5077874;28;20207;-88
2022/08/21 00:23:28;;;;;;;8.70;3.13;;;14.70;85.80;;;;;;5075870;28;20175;-89
2022/08/21 00:25:54;;;;;;;7.43;3.20;;;14.80;85.50;;;;;;5076468;28;20219;-89
2022/08/21 00:28:19;;;;;;;6.93;3.22;;;14.80;85.20;;;;;;5075341;28;20286;-88
2022/08/21 00:30:45;;;;;;;8.05;2.58;;;14.70;85.20;;;;;;5075210;28;20182;-87
2022/08/21 00:33:12;;;;;;;3.92;3.05;;;14.60;85.10;;;;;;5074943;28;20266;-89
2022/08/21 00:35:40;;;;;;;3.88;2.70;;;14.50;84.90;;;;;;5075043;28;20198;-88
2022/08/21 00:38:08;;;;;;;5.38;2.35;;;14.40;84.90;;;;;;5075408;28;20183;-88
2022/08/21 00:40:51;;;;;;;5.80;2.85;;;14.30;84.70;;;;;;5076545;28;20548;-89
2022/08/21 00:43:20;;;;;;;6.65;2.53;;;14.30;84.60;;;;;;5075993;28;20183;-89
2022/08/21 00:45:46;;;;;;;3.20;2.35;;;14.30;84.20;;;;;;5074836;28;20209;-89
2022/08/21 00:48:12;;;;;;;7.93;3.05;;;14.30;83.70;;;;;;5073691;28;20203;-89
2022/08/21 00:50:45;;;;;;;6.97;3.07;;;14.30;83.40;;;;;;5074587;28;20641;-89
2022/08/21 00:53:13;;;;;;;5.88;2.50;;;14.20;83.10;;;;;;5074742;28;20164;-90
2022/08/21 00:55:40;;;;;;;5.80;2.88;;;14.20;82.90;;;;;;5074566;28;20221;-90
2022/08/21 00:58:07;;;;;;;2.80;2.47;;;14.20;82.80;;;;;;5074574;28;20207;-90
2022/08/21 01:00:38;;;;;;;6.22;2.60;;;14.20;82.70;;;;;;5075725;28;20192;-90
2022/08/21 01:03:08;;;;;;;3.53;2.40;;;14.20;82.60;;;;;;5075306;28;20622;-90
2022/08/21 01:05:33;;;;;;;6.57;2.50;;;14.10;82.40;;;;;;5075721;28;20207;-90
2022/08/21 01:07:59;;;;;;;6.60;2.33;;;14.10;82.20;;;;;;5074377;28;20199;-90
2022/08/21 01:10:25;;;;;;;6.33;2.10;;;14.00;82.10;;;;;;5074342;28;20207;-90
2022/08/21 01:12:54;;;;;;;3.77;2.27;;;14.00;82.00;;;;;;5075898;28;20175;-90
2022/08/21 01:15:22;;;;;;;6.47;2.07;;;14.00;82.00;;;;;;5074518;28;20175;-90
2022/08/21 01:17:49;;;;;;;3.03;1.90;;;14.00;81.70;;;;;;5074145;28;20270;-89
2022/08/21 01:20:15;;;;;;;4.20;2.37;;;13.90;81.50;;;;;;5074149;28;20270;-89
2022/08/21 01:22:41;;;;;;;6.63;2.60;;;13.90;81.30;;;;;;5074089;28;20660;-90
2022/08/21 01:25:08;;;;;;;3.53;2.57;;;13.90;81.30;;;;;;5074267;28;20185;-89
2022/08/21 01:27:34;;;;;;;6.00;2.80;;;13.90;81.30;;;;;;5073921;28;20199;-89
2022/08/21 01:30:20;;;;;;;4.87;2.90;;;13.80;81.30;;;;;;5074196;28;20254;-90
2022/08/21 01:32:47;;;;;;;5.83;2.90;;;13.80;81.20;;;;;;5074171;28;20163;-90
2022/08/21 01:35:15;;;;;;;6.27;3.43;;;13.80;81.20;;;;;;5073743;28;20553;-89
2022/08/21 01:37:42;;;;;;;5.87;3.30;;;13.80;81.40;;;;;;5073772;28;20625;-90
2022/08/21 01:40:08;;;;;;;9.77;3.00;;;13.80;81.60;;;;;;5073697;28;20180;-90
2022/08/21 01:42:34;;;;;;;7.27;2.80;;;13.80;81.70;;;;;;5073701;28;20181;-89
2022/08/21 01:45:00;;;;;;;3.60;2.80;;;13.80;81.90;;;;;;5073588;28;20175;-90
2022/08/21 01:47:26;;;;;;;5.40;3.03;;;13.80;82.30;;;;;;5073391;28;20234;-90
2022/08/21 01:49:52;;;;;;;7.23;3.20;;;13.60;82.80;;;;;;5073650;28;20192;-89
2022/08/21 01:52:18;;;;;;;4.57;2.77;;;13.50;83.10;;;;;;5073506;28;20175;-90
2022/08/21 01:54:43;;;;;;;5.17;2.77;;;13.50;83.20;;;;;;5073511;28;20175;-90
2022/08/21 01:57:10;;;;;;;6.13;2.63;;;13.50;83.30;;;;;;5073276;28;20202;-90
2022/08/21 01:59:36;;;;;;;4.23;2.80;;;13.60;83.20;;;;;;5074096;28;20222;-89
2022/08/21 02:02:03;;;;;;;5.30;2.60;;;13.50;83.10;;;;;;5074563;28;20187;-90
2022/08/21 02:04:28;;;;;;;6.30;2.50;;;13.50;83.00;;;;;;5074688;28;20179;-89
2022/08/21 02:06:54;;;;;;;4.47;2.97;;;13.50;82.80;;;;;;5072987;28;20576;-90
2022/08/21 02:09:21;;;;;;;5.90;2.60;;;13.50;82.50;;;;;;5073163;28;20172;-89
2022/08/21 02:11:47;;;;;;;3.57;2.50;;;13.40;82.30;;;;;;5073016;28;20218;-90
2022/08/21 02:14:14;;;;;;;5.80;2.40;;;13.50;82.20;;;;;;5073222;28;20202;-90
2022/08/21 02:16:42;;;;;;;6.37;2.73;;;13.50;82.10;;;;;;5072910;28;20226;-90
2022/08/21 02:19:09;;;;;;;3.87;2.67;;;13.40;82.00;;;;;;5072818;28;20549;-90
2022/08/21 02:21:34;;;;;;;5.57;2.63;;;13.40;82.00;;;;;;5072918;28;20209;-89
2022/08/21 02:24:00;;;;;;;7.33;3.60;;;13.40;82.00;;;;;;5072929;28;20548;-90
2022/08/21 02:26:26;;;;;;;5.53;2.73;;;13.40;81.90;;;;;;5072780;28;20245;-89
2022/08/21 02:28:51;;;;;;;4.80;3.00;;;13.40;82.00;;;;;;5072850;28;20196;-90
2022/08/21 02:31:17;;;;;;;3.77;2.57;;;13.30;82.10;;;;;;5074262;28;20171;-90
2022/08/21 02:33:43;;;;;;;7.23;2.60;;;13.30;82.20;;;;;;5073945;28;20199;-90
2022/08/21 02:36:10;;;;;;;4.63;2.43;;;13.30;82.30;;;;;;5072877;28;20655;-90
2022/08/21 02:38:38;;;;;;;4.20;2.90;;;13.30;82.40;;;;;;5072684;28;20185;-89
2022/08/21 02:41:05;;;;;;;3.97;2.77;;;13.30;82.30;;;;;;5072817;28;20730;-90
2022/08/21 02:43:31;;;;;;;4.63;2.60;;;13.20;82.30;;;;;;5072540;28;20187;-90
2022/08/21 02:45:57;;;;;;;5.27;3.00;;;13.20;82.40;;;;;;5072397;28;20203;-90
2022/08/21 02:48:27;;;;;;;4.37;2.90;;;13.30;82.40;;;;;;5072401;28;20207;-90
2022/08/21 02:51:14;;;;;;;5.13;3.23;;;13.20;82.40;;;;;;5073934;28;20205;-90
2022/08/21 02:53:40;;;;;;;3.33;2.67;;;13.20;82.40;;;;;;5072938;28;20188;-89
2022/08/21 02:56:08;;;;;;;5.07;2.83;;;13.20;82.40;;;;;;5072305;28;20191;-90
2022/08/21 02:58:38;;;;;;;3.23;2.57;;;13.20;82.50;;;;;;5073421;28;20656;-90
2022/08/21 03:01:04;;;;;;;5.40;2.73;;;13.20;82.50;;;;;;5072404;28;20179;-90
2022/08/21 03:03:30;;;;;;;5.47;2.80;;;13.10;82.60;;;;;;5072330;28;20297;-90
2022/08/21 03:05:56;;;;;;;4.67;2.60;;;13.10;82.90;;;;;;5072223;28;20286;-90
2022/08/21 03:08:22;;;;;;;3.50;2.60;;;13.10;83.00;;;;;;5072441;28;20207;-89
2022/08/21 03:10:51;;;;;;;4.30;2.43;;;13.10;83.10;;;;;;5072011;28;20188;-90
2022/08/21 03:13:17;;;;;;;6.03;2.60;;;13.10;83.00;;;;;;5071578;28;20233;-90
2022/08/21 03:15:43;;;;;;;2.50;2.30;;;13.10;82.90;;;;;;5072126;28;20282;-90
2022/08/21 03:18:10;;;;;;;3.77;2.47;;;13.00;82.90;;;;;;5072079;28;20547;-90
2022/08/21 03:20:37;;;;;;;3.87;2.47;;;13.00;82.80;;;;;;5072078;28;20183;-90
2022/08/21 03:23:05;;;;;;;3.33;2.10;;;13.00;82.80;;;;;;5073337;28;20201;-90
2022/08/21 03:25:34;;;;;;;4.20;2.30;;;13.00;82.70;;;;;;5071925;28;20768;-90
2022/08/21 03:28:01;;;;;;;5.43;2.50;;;13.00;82.60;;;;;;5073130;28;20195;-90
2022/08/21 03:30:27;;;;;;;3.40;2.43;;;13.00;82.60;;;;;;5071806;28;20183;-90
2022/08/21 03:32:53;;;;;;;5.90;2.30;;;13.00;82.60;;;;;;5073230;28;20655;-89
2022/08/21 03:35:20;;;;;;;5.87;2.77;;;13.00;82.70;;;;;;5071885;28;20175;-90
2022/08/21 03:37:46;;;;;;;3.30;2.83;;;12.90;82.70;;;;;;5071999;28;20175;-90
2022/08/21 03:40:15;;;;;;;4.53;1.93;;;12.90;82.70;;;;;;5071862;28;20183;-90
2022/08/21 03:42:40;;;;;;;4.97;2.57;;;12.90;82.80;;;;;;5073089;28;20262;-90
2022/08/21 03:45:08;;;;;;;4.00;3.40;;;12.90;82.90;;;;;;5073364;28;20684;-90
2022/08/21 03:47:33;;;;;;;2.30;2.20;;;13.00;83.30;;;;;;5073236;28;20199;-90
2022/08/21 03:49:59;;;;;;;2.37;2.27;;;12.80;84.00;;;;;;5072307;28;20600;-87
2022/08/21 03:52:25;;;;;;;3.03;2.83;;;12.80;84.50;;;;;;5071954;28;20180;-89
2022/08/21 03:54:51;;;;;;;7.13;3.90;;;12.70;84.90;;;;;;5071815;28;20183;-90
2022/08/21 03:57:16;;;;;;;4.77;3.93;;;12.60;85.40;;;;;;5071720;28;20256;-90
2022/08/21 03:59:43;;;;;;;7.53;5.13;;;12.60;85.50;;;;;;5071544;28;20571;-90
2022/08/21 04:02:09;;;;;;;4.80;4.30;;;12.70;86.10;;;;;;5073571;28;20183;-90
2022/08/21 04:04:35;;;;;;;6.83;4.17;;;12.70;86.50;;;;;;5071591;28;20638;-90
2022/08/21 04:07:01;;;;;;;5.43;3.90;;;12.80;86.80;;;;;;5072708;28;20229;-90
2022/08/21 04:09:27;;;;;;;10.60;4.63;;;12.80;87.10;;;;;;5071490;28;20176;-90
2022/08/21 04:11:53;;;;;;;6.60;5.00;;;12.80;87.40;;;;;;5071545;28;20173;-90
2022/08/21 04:14:19;;;;;;;8.57;5.50;;;12.70;87.70;;;;;;5072702;28;20178;-91
2022/08/21 04:16:44;;;;;;;7.20;6.40;;;12.80;88.00;;;;;;5071853;28;20286;-91
2022/08/21 04:19:12;;;;;;;13.53;6.77;;;12.70;88.10;;;;;;5072765;28;20703;-90
2022/08/21 04:21:39;;;;;;;10.30;6.80;;;12.70;88.50;;;;;;5071542;28;20179;-91
2022/08/21 04:24:07;;;;;;;10.83;7.13;;;12.70;88.70;;;;;;5074121;28;20229;-90
2022/08/21 04:26:34;;;;;;;10.33;7.17;;;12.70;88.80;;;;;;5075183;28;20548;-90
2022/08/21 04:28:59;;;;;;;8.17;6.70;;;12.80;89.00;;;;;;5076347;28;20641;-90
2022/08/21 04:31:25;;;;;;;8.77;6.80;;;12.80;89.10;;;;;;5075165;28;20174;-91
2022/08/21 04:33:51;;;;;;;7.57;6.30;;;12.80;89.20;;;;;;5074977;28;20260;-90
2022/08/21 04:36:17;;;;;;;10.80;7.13;;;12.80;89.30;;;;;;5076226;28;20199;-90
2022/08/21 04:38:42;;;;;;;18.27;8.30;;;12.90;89.50;;;;;;5074928;28;20263;-90
2022/08/21 04:41:08;;;;;;;9.90;6.93;;;13.00;89.50;;;;;;5076063;28;20175;-90
2022/08/21 04:43:34;;;;;;;10.63;6.40;;;13.00;89.60;;;;;;5076095;28;20175;-90
2022/08/21 04:46:00;;;;;;;8.30;6.13;;;13.10;89.60;;;;;;5076041;28;20195;-90
2022/08/21 04:48:26;;;;;;;10.40;5.50;;;13.10;89.60;;;;;;5074722;28;20199;-90
2022/08/21 04:51:10;;;;;;;9.20;5.37;;;13.20;89.70;;;;;;5074824;28;20213;-90
2022/08/21 04:54:06;;;;;;;8.63;5.93;;;13.30;89.70;;;;;;5076170;28;20159;-90
2022/08/21 04:56:36;;;;;;;8.97;5.63;;;13.40;89.80;;;;;;5073448;28;20206;-90
2022/08/21 04:59:06;;;;;;;7.17;5.07;;;13.50;89.80;;;;;;5074518;28;20194;-90
2022/08/21 05:01:35;;;;;;;6.30;4.60;;;13.50;89.80;;;;;;5074727;28;20177;-90
2022/08/21 05:04:05;;;;;;;10.10;5.37;;;13.70;89.80;;;;;;5075693;28;20171;-90
2022/08/21 05:06:34;;;;;;;12.80;5.10;;;13.80;89.90;;;;;;5074615;28;20653;-90
2022/08/21 05:09:01;;;;;;;5.50;5.00;;;13.80;89.80;;;;;;5074340;28;20266;-90
2022/08/21 05:11:27;;;;;;;10.43;5.17;;;13.90;89.80;;;;;;5074464;28;20175;-90
2022/08/21 05:13:52;;;;;;;11.70;4.50;;;14.00;89.80;;;;;;5074291;28;20194;-90
2022/08/21 05:16:18;;;;;;;7.53;4.83;;;14.00;89.70;;;;;;5075389;28;20227;-90
2022/08/21 05:18:43;;;;;;;11.53;4.37;;;14.10;89.70;;;;;;5074204;28;20179;-91
2022/08/21 05:21:09;;;;;;;7.57;4.60;;;14.20;89.70;;;;;;5074168;28;20171;-89
2022/08/21 05:23:36;;;;;;;11.10;4.90;;;14.20;89.70;;;;;;5075411;28;20182;-90
2022/08/21 05:26:02;;;;;;;8.73;4.57;;;14.30;89.60;;;;;;5075233;28;20191;-90
2022/08/21 05:28:27;;;;;;;5.77;3.87;;;14.30;89.50;;;;;;5074409;28;20198;-90
2022/08/21 05:30:53;;;;;;;10.23;4.27;;;14.40;89.50;;;;;;5074064;28;20175;-90
2022/08/21 05:33:19;;;;;;;8.63;4.10;;;14.50;89.50;;;;;;5074075;28;20177;-90
2022/08/21 05:35:45;;;;;;;8.40;4.53;;;14.50;89.40;;;;;;5073050;28;20718;-90
2022/08/21 05:38:10;;;;;;;15.33;5.60;;;14.50;89.30;;;;;;5075103;28;20661;-90
2022/08/21 05:40:36;;;;;;;9.37;5.53;;;14.50;89.30;;;;;;5073875;28;20186;-90
2022/08/21 05:43:02;;;;;;;12.40;4.80;;;14.60;89.30;;;;;;5074501;28;20258;-90
2022/08/21 05:45:30;;;;;;;8.38;3.83;;;14.60;89.20;;;;;;5073624;28;20202;-90
2022/08/21 05:47:56;;;;;;;13.20;4.60;;;14.60;89.00;;;;;;5075006;28;20557;-90
2022/08/21 05:50:22;;;;;;;7.55;4.78;;;14.70;88.90;;;;;;5075401;28;20174;-90
2022/08/21 05:52:48;;;;;;;11.45;4.53;;;14.70;88.80;;;;;;5073512;28;20266;-90
2022/08/21 05:55:14;;;;;;;12.80;4.57;;;14.80;88.90;;;;;;5073425;28;20546;-90
2022/08/21 05:57:41;;;;;;;4.90;3.78;;;14.80;88.80;;;;;;5073566;28;20262;-90
2022/08/21 06:00:12;;;;;;;8.52;3.90;;;14.80;88.90;;;;;;5073251;28;20191;-90
2022/08/21 06:02:38;;;;;;;12.65;4.68;;;14.80;89.00;;;;;;5073369;28;20178;-90
2022/08/21 06:05:04;;;;;;;8.63;4.47;;;14.80;89.10;;;;;;5073355;28;20186;-90
2022/08/21 06:07:30;;;;;;;9.02;4.32;;;14.80;89.20;;;;;;5073416;28;20664;-90
2022/08/21 06:09:56;;;;;;;8.82;4.30;;;14.90;89.20;;;;;;5073631;28;20174;-89
2022/08/21 06:12:22;;;;;;;11.18;4.55;;;15.00;89.20;;;;;;5073688;28;20258;-91
2022/08/21 06:14:47;;;;;;;8.70;3.70;;;15.00;89.20;;;;;;5073305;28;20172;-91
2022/08/21 06:17:14;;;;;;;9.50;4.07;;;15.10;89.20;;;;;;5073468;28;20221;-89
2022/08/21 06:19:40;;;;;;;9.57;4.00;;;15.20;89.20;;;;;;5074558;28;20258;-90
2022/08/21 06:22:05;;;;;;;13.43;3.67;;;15.20;89.00;;;;;;5073108;28;20218;-89
2022/08/21 06:24:31;;;;;;;8.10;3.80;;;15.20;88.90;;;;;;5073051;28;20641;-88
2022/08/21 06:26:57;;;;;;;7.80;3.85;;;15.20;88.80;;;;;;5072837;28;20207;-89
2022/08/21 06:29:23;;;;;;;7.85;3.58;;;15.30;88.70;;;;;;5072885;28;20171;-89
2022/08/21 06:31:51;;;;;;;7.88;3.80;;;15.30;88.60;;;;;;5072815;28;20168;-89
2022/08/21 06:34:18;;;;;;;9.63;3.10;;;15.30;88.40;;;;;;5073941;28;20720;-89
2022/08/21 06:36:44;;;;;;;12.25;3.42;;;15.40;88.00;;;;;;5074113;28;20213;-90
2022/08/21 06:39:10;;;;;;;10.45;3.53;;;15.40;87.40;;;;;;5072649;28;20176;-90
2022/08/21 06:41:35;;;;;;;11.77;3.55;;;15.50;86.70;;;;;;5073895;28;20182;-89
2022/08/21 06:44:01;;;;;;;10.68;3.20;;;15.70;86.60;;;;;;5073019;28;20172;-89
2022/08/21 06:46:29;;;;;;;8.48;3.15;;;15.70;85.90;;;;;;5072456;28;20581;-90
2022/08/21 06:48:55;;;;;;;10.05;2.88;;;15.70;84.80;;;;;;5072800;28;20179;-89
2022/08/21 06:51:22;;;;;;;6.45;3.47;;;15.90;84.90;;;;;;5072476;28;20228;-89
2022/08/21 06:53:48;;;;;;;5.95;2.70;;;15.90;84.50;;;;;;5072420;28;20175;-89
2022/08/21 06:56:13;;;;;;;6.63;2.40;;;16.10;84.50;;;;;;5072381;28;20624;-89
2022/08/21 06:58:39;;;;;;;9.27;3.10;;;16.20;83.60;;;;;;5072172;28;20213;-89
2022/08/21 07:01:05;;;;;;;5.28;2.40;;;16.30;83.30;;;;;;5072437;28;20220;-89
2022/08/21 07:03:34;;;;;;;9.40;2.40;;;16.50;82.10;;;;;;5072354;28;20210;-89
2022/08/21 07:06:00;;;;;;;7.68;2.35;;;16.60;81.30;;;;;;5072191;28;20199;-90
2022/08/21 07:08:27;;;;;;;6.38;2.60;;;16.70;81.10;;;;;;5072180;28;20696;-90
2022/08/21 07:10:55;;;;;;;7.72;2.63;;;16.70;81.50;;;;;;5072312;28;20178;-91
2022/08/21 07:13:21;;;;;;;6.45;2.50;;;16.80;81.10;;;;;;5072288;28;20180;-91
2022/08/21 07:15:47;;;;;;;6.93;2.42;;;16.90;81.60;;;;;;5072310;28;20199;-90
2022/08/21 07:18:13;;;;;;;8.23;2.70;;;17.00;80.30;;;;;;5072567;28;20168;-90
2022/08/21 07:20:39;;;;;;;8.75;2.63;;;17.10;80.70;;;;;;5072111;28;20175;-90
2022/08/21 07:23:08;;;;;;;4.25;2.45;;;17.20;79.40;;;;;;5073714;28;20175;-88
2022/08/21 07:25:34;;;;;;;6.72;2.50;;;17.30;79.00;;;;;;5072666;28;20195;-89
2022/08/21 07:27:59;;;;;;;7.28;2.63;;;17.50;79.90;;;;;;5072098;28;20195;-90
2022/08/21 07:30:25;;;;;;;7.53;2.63;;;17.60;80.10;;;;;;5073039;28;20654;-90
2022/08/21 07:32:59;;;;;;;6.82;2.80;;;17.70;78.90;;;;;;5072782;28;20172;-91
2022/08/21 07:35:27;;;;;;;7.53;2.47;;;17.70;78.40;;;;;;5074721;28;20164;-92
2022/08/21 07:37:53;;;;;;;8.15;2.65;;;17.80;78.50;;;;;;5073161;28;20527;-90
2022/08/21 07:40:19;;;;;;;7.40;3.10;;;17.90;78.80;;;;;;5073225;28;20171;-90
2022/08/21 07:42:47;;;;;;;5.45;2.67;;;17.90;77.40;;;;;;5074372;28;20183;-90
2022/08/21 07:45:14;;;;;;;8.50;3.15;;;18.00;77.00;;;;;;5074492;28;20199;-90
2022/08/21 07:47:39;;;;;;;7.72;3.10;;;18.00;76.70;;;;;;5072970;28;20195;-89
2022/08/21 07:50:06;;;;;;;9.10;2.65;;;18.20;77.70;;;;;;5073556;28;20198;-91
2022/08/21 07:52:33;;;;;;;7.20;2.58;;;18.10;77.40;;;;;;5072501;28;20164;-90
2022/08/21 07:56:04;;;;;;;;;;;;;;;;;;;;;
2022/08/21 07:58:05;;;;;;;4.45;2.33;;;18.30;77.90;;;;;;5073821;28;20178;-89
2022/08/21 08:00:31;;;;;;;7.20;2.53;;;18.50;78.00;;;;;;5076160;28;20223;-91
2022/08/21 08:03:00;;;;;;;10.27;2.95;;;18.40;77.60;;;;;;5076558;28;20237;-90
2022/08/21 08:05:29;;;;;;;7.45;3.03;;;18.70;76.90;;;;;;5077115;28;20695;-90
2022/08/21 08:07:55;;;;;;;9.70;3.70;;;18.70;76.10;;;;;;5075561;28;20290;-90
2022/08/21 08:10:22;;;;;;;10.57;3.70;;;18.80;74.50;;;;;;5075847;28;20541;-90
2022/08/21 08:12:48;;;;;;;11.85;3.80;;;19.00;75.30;;;;;;5077139;28;20171;-91
2022/08/21 08:15:21;;;;;;;10.27;3.47;;;19.00;73.70;;;;;;5076523;28;20271;-90
2022/08/21 08:17:47;;;;;;;13.20;3.45;;;19.10;72.70;;;;;;5077528;28;20183;-90
2022/08/21 08:20:15;;;;;;;10.55;3.65;;;19.30;73.40;;;;;;5075989;28;20179;-90
2022/08/21 08:22:42;;;;;;;10.18;3.20;;;19.30;74.20;;;;;;5075849;28;20233;-91
2022/08/21 08:25:09;;;;;;;11.65;3.40;;;19.40;72.50;;;;;;5075707;28;20221;-91
2022/08/21 08:27:35;;;;;;;8.43;3.40;;;19.40;73.90;;;;;;5075304;28;20252;-90
2022/08/21 08:30:01;;;;;;;8.15;3.25;;;19.40;72.10;;;;;;5076856;28;20254;-90
2022/08/21 08:32:27;;;;;;;11.57;3.50;;;19.50;72.00;;;;;;5075784;28;20171;-90
2022/08/21 08:34:52;;;;;;;11.25;3.00;;;19.70;73.40;;;;;;5075860;28;20205;-89
2022/08/21 08:37:19;;;;;;;9.98;3.17;;;19.80;72.40;;;;;;5076824;28;20677;-90
2022/08/21 08:39:45;;;;;;;8.32;3.05;;;19.90;71.60;;;;;;5075120;28;20601;-89
2022/08/21 08:42:21;;;;;;;6.78;2.78;;;20.00;72.10;;;;;;5075098;28;20262;-90
2022/08/21 08:44:47;;;;;;;15.48;3.47;;;20.10;73.10;;;;;;5074895;28;20171;-89
2022/08/21 08:47:17;;;;;;;7.05;2.92;;;20.30;72.60;;;;;;5074565;28;20203;-90
2022/08/21 08:49:54;;;;;;;9.13;2.65;;;20.40;71.60;;;;;;5075711;28;20235;-89
2022/08/21 08:52:30;;;;;;;9.77;3.60;;;20.50;72.30;;;;;;5076641;28;20167;-89
2022/08/21 08:55:08;;;;;;;10.68;3.28;;;20.70;70.60;;;;;;5075903;28;20776;-89
2022/08/21 08:57:35;;;;;;;11.02;3.58;;;20.80;70.80;;;;;;5074598;28;20186;-90
2022/08/21 09:00:06;;;;;;;8.30;3.03;;;20.80;69.60;;;;;;5075824;28;20669;-90
2022/08/21 09:02:33;;;;;;;9.95;3.00;;;20.90;69.30;;;;;;5074693;28;20201;-90
2022/08/21 09:05:00;;;;;;;10.40;3.13;;;21.00;70.00;;;;;;5074556;28;20187;-88
2022/08/21 09:07:59;;;;;;;11.40;2.92;;;20.80;68.70;;;;;;5075755;28;20199;-90
2022/08/21 09:10:39;;;;;;;9.32;2.80;;;21.00;69.70;;;;;;5064942;28;20591;-90
2022/08/21 09:13:33;;;;;;;9.00;2.58;;;21.30;70.00;;;;;;5075701;28;20617;-91
2022/08/21 09:16:11;;;;;;;11.93;2.92;;;21.70;67.60;;;;;;5048353;28;20195;-89
2022/08/21 09:18:40;;;;;;;10.18;3.05;;;21.80;67.30;;;;;;5074647;28;20674;-89
2022/08/21 09:21:21;;;;;;;8.05;3.00;;;21.70;67.40;;;;;;5074237;28;20562;-89
2022/08/21 09:24:24;;;;;;;10.18;3.13;;;21.60;65.70;;;;;;5074277;28;20206;-90
2022/08/21 09:26:57;;;;;;;7.85;3.15;;;21.80;65.90;;;;;;5073968;28;20198;-89
2022/08/21 09:29:26;;;;;;;8.13;2.85;;;21.70;65.30;;;;;;5075244;28;20163;-89
2022/08/21 09:31:52;;;;;;;11.77;3.30;;;21.70;66.00;;;;;;5074057;28;20172;-88
2022/08/21 09:34:26;;;;;;;10.35;2.63;;;21.80;66.80;;;;;;5074898;28;20172;-90
2022/08/21 09:36:52;;;;;;;10.32;3.05;;;21.80;64.20;;;;;;5075100;28;20198;-90
2022/08/21 09:39:41;;;;;;;9.60;2.90;;;21.80;64.80;;;;;;5073983;28;20619;-90
2022/08/21 09:42:09;;;;;;;4.90;2.47;;;21.90;63.80;;;;;;5065950;28;20549;-90
2022/08/21 09:44:40;;;;;;;6.07;1.90;;;22.10;64.00;;;;;;5073945;28;20229;-90
2022/08/21 09:47:07;;;;;;;11.15;2.75;;;22.10;62.90;;;;;;5075007;28;20611;-92
2022/08/21 09:49:35;;;;;;;6.00;2.13;;;22.10;62.30;;;;;;5076340;28;20171;-92
2022/08/21 09:52:06;;;;;;;6.10;2.38;;;22.20;62.00;;;;;;5074160;28;20180;-91
2022/08/21 09:54:36;;;;;;;6.43;2.90;;;22.30;61.00;;;;;;5074036;28;20168;-91
2022/08/21 10:00:22;;;;;;;8.98;2.25;;;22.20;62.40;;;;;;5075644;28;20718;-90
2022/08/21 10:02:48;;;;;;;11.50;4.40;;;22.40;59.70;;;;;;5074095;28;20237;-90
2022/08/21 10:05:23;;;;;;;10.68;2.45;;;22.70;58.90;;;;;;5074082;28;20645;-90
2022/08/21 10:07:49;;;;;;;6.47;2.20;;;22.40;59.40;;;;;;5073529;28;20194;-89
2022/08/21 10:10:20;;;;;;;5.25;2.63;;;22.20;60.60;;;;;;5075100;28;20514;-89
2022/08/21 10:13:13;;;;;;;8.75;2.50;;;22.50;59.50;;;;;;5073786;28;20159;-89
2022/08/21 10:16:15;;;;;;;4.97;2.13;;;22.90;59.70;;;;;;5073614;28;20278;-88
2022/08/21 10:19:05;;;;;;;5.88;2.35;;;22.90;58.40;;;;;;5073399;28;20159;-88
2022/08/21 10:22:00;;;;;;;5.43;2.25;;;22.60;59.10;;;;;;5073175;28;20164;-88
2022/08/21 10:24:46;;;;;;;8.02;2.05;;;22.70;59.00;;;;;;5052016;28;20179;-91
2022/08/21 10:27:26;;;;;;;6.53;2.05;;;23.00;58.50;;;;;;5074004;28;20198;-90
2022/08/21 10:29:59;;;;;;;7.47;2.13;;;23.00;58.10;;;;;;5073449;28;20191;-89
2022/08/21 10:32:43;;;;;;;6.70;1.80;;;23.50;58.60;;;;;;5073147;28;20163;-90
2022/08/21 10:35:20;;;;;;;8.77;2.25;;;23.70;56.60;;;;;;5073900;28;20189;-90
2022/08/21 10:38:23;;;;;;;5.40;2.17;;;23.50;56.00;;;;;;5072837;28;20251;-90
2022/08/21 10:40:53;;;;;;;4.90;1.88;;;23.60;52.60;;;;;;5073077;28;20182;-91
2022/08/21 10:44:01;;;;;;;4.50;1.92;;;23.30;54.50;;;;;;5074495;28;20185;-91
2022/08/21 10:47:01;;;;;;;4.63;1.70;;;23.20;51.80;;;;;;5068169;28;20718;-91
2022/08/21 10:49:53;;;;;;;5.05;1.90;;;23.10;53.40;;;;;;5072659;28;20657;-88
2022/08/21 10:52:39;;;;;;;7.18;2.45;;;23.70;54.00;;;;;;5074823;28;20151;-89
2022/08/21 10:55:17;;;;;;;6.72;2.38;;;23.40;53.40;;;;;;5074222;28;20155;-89
2022/08/21 10:57:57;;;;;;;3.95;1.92;;;23.00;56.30;;;;;;5075463;28;20163;-91
2022/08/21 11:00:29;;;;;;;4.40;1.70;;;23.20;54.60;;;;;;5074617;28;20183;-89
2022/08/21 11:03:35;;;;;;;3.97;1.73;;;23.20;51.90;;;;;;5078347;28;20183;-92
2022/08/21 11:06:19;;;;;;;4.07;1.40;;;23.70;52.50;;;;;;5071994;28;20210;-89
2022/08/21 11:08:57;;;;;;;4.45;1.50;;;23.90;51.60;;;;;;5072884;28;20222;-89
2022/08/21 11:11:29;;;;;;;4.28;1.75;;;24.40;48.60;;;;;;5075667;28;20148;-86
2022/08/21 11:14:02;;;;;;;2.70;1.70;;;23.90;51.40;;;;;;5074238;28;20155;-88
2022/08/21 11:16:41;;;;;;;8.43;1.90;;;24.40;50.50;;;;;;5074350;28;20191;-86
2022/08/21 11:19:29;;;;;;;4.40;1.90;;;24.50;51.10;;;;;;5074677;28;20570;-88
2022/08/21 11:22:07;;;;;;;3.85;1.80;;;24.70;51.20;;;;;;5074892;28;20193;-87
2022/08/21 11:25:12;;;;;;;6.28;2.08;;;24.60;50.70;;;;;;5074250;28;20179;-88
2022/08/21 11:27:43;;;;;;;4.63;1.45;;;24.60;47.60;;;;;;5073147;28;20553;-89
2022/08/21 11:30:09;;;;;;;4.78;1.75;;;24.30;48.00;;;;;;5073518;28;20174;-89
2022/08/21 11:32:56;;;;;;;6.05;1.40;;;24.70;49.50;;;;;;5071799;28;20182;-89
2022/08/21 11:35:40;;;;;;;6.47;1.60;;;24.60;48.10;;;;;;5072412;28;20160;-89
2022/08/21 11:38:25;;;;;;;4.07;1.58;;;24.30;48.50;;;;;;5072288;28;20269;-89
2022/08/21 11:41:03;;;;;;;3.75;1.50;;;24.40;47.70;;;;;;5073559;28;20163;-89
2022/08/21 11:43:42;;;;;;;2.40;1.40;;;24.80;50.00;;;;;;5072438;28;20615;-90
2022/08/21 11:46:26;;;;;;;6.25;1.90;;;25.00;47.60;;;;;;5072471;28;20199;-88
2022/08/21 11:49:23;;;;;;;4.60;1.50;;;24.60;46.90;;;;;;5072621;28;20190;-89
2022/08/21 11:52:02;;;;;;;5.22;1.42;;;24.30;47.90;;;;;;5073411;28;20167;-90
2022/08/21 11:54:31;;;;;;;5.65;1.35;;;24.90;47.70;;;;;;5072327;28;20160;-89
2022/08/21 11:57:08;;;;;;;2.63;1.20;;;25.00;48.60;;;;;;5072162;28;20278;-90
2022/08/21 11:59:39;;;;;;;1.95;1.08;;;25.20;47.50;;;;;;5073756;28;20668;-88
2022/08/21 12:02:14;;;;;;;8.90;1.58;;;25.20;45.60;;;;;;5071964;28;20171;-90
2022/08/21 12:04:53;;;;;;;4.15;1.38;;;25.10;46.60;;;;;;5073245;28;20183;-90
2022/08/21 12:07:39;;;;;;;3.33;1.65;;;25.20;45.80;;;;;;5072938;28;20192;-89
2022/08/21 12:10:12;;;;;;;4.53;1.40;;;25.30;46.20;;;;;;5073392;28;20155;-90
2022/08/21 12:12:45;;;;;;;6.35;1.38;;;25.50;48.60;;;;;;5073535;28;20668;-89
2022/08/21 12:15:19;;;;;;;2.65;1.20;;;25.10;45.30;;;;;;5073350;28;20538;-90
2022/08/21 12:18:05;;;;;;;4.13;1.75;;;25.00;46.10;;;;;;5072013;28;20178;-90
2022/08/21 12:20:41;;;;;;;2.28;1.10;;;25.20;47.30;;;;;;5072759;28;20175;-91
2022/08/21 12:23:10;;;;;;;2.78;1.23;;;25.30;44.60;;;;;;5062864;22;20703;-89
2022/08/21 12:25:59;;;;;;;4.68;1.55;;;25.70;45.10;;;;;;5011997;28;20524;-89
2022/08/21 12:28:27;;;;;;;4.22;1.20;;;25.80;43.70;;;;;;5013442;28;20197;-89
2022/08/21 12:30:52;;;;;;;4.32;1.70;;;25.50;45.00;;;;;;5013384;28;20253;-89
2022/08/21 12:33:20;;;;;;;6.10;1.40;;;25.40;47.40;;;;;;5024355;28;20266;-89
2022/08/21 12:35:49;;;;;;;2.45;1.35;;;25.10;46.30;;;;;;5031764;28;20261;-89
2022/08/21 12:38:33;;;;;;;4.45;1.48;;;25.00;46.50;;;;;;5032361;28;20181;-89
2022/08/21 12:41:06;;;;;;;3.78;1.80;;;25.20;47.60;;;;;;5031355;28;20176;-89
2022/08/21 12:43:37;;;;;;;3.65;1.45;;;25.00;47.30;;;;;;5031587;28;20615;-88
2022/08/21 12:46:04;;;;;;;4.03;1.70;;;24.60;47.70;;;;;;5035568;28;20553;-89
2022/08/21 12:48:56;;;;;;;3.90;1.80;;;24.30;49.30;;;;;;5034856;28;20201;-89
2022/08/21 12:51:30;;;;;;;9.70;1.70;;;24.30;48.10;;;;;;5027087;28;20227;-90
2022/08/21 12:53:59;;;;;;;4.38;1.50;;;24.80;49.00;;;;;;5034789;28;20666;-88
2022/08/21 12:56:28;;;;;;;3.88;1.48;;;25.20;49.00;;;;;;5034678;28;20169;-88
2022/08/21 12:59:03;;;;;;;4.45;1.80;;;25.20;47.10;;;;;;5034622;28;20585;-88
2022/08/21 13:01:34;;;;;;;3.63;1.40;;;25.20;46.10;;;;;;5034507;28;20585;-89
2022/08/21 13:04:09;;;;;;;4.40;1.38;;;25.70;45.30;;;;;;5035632;28;20189;-89
2022/08/21 13:06:44;;;;;;;3.55;1.50;;;25.20;46.20;;;;;;5037438;28;20183;-88